Time;durP1;ratioP1;P1;durP2;ratioP2;P2;SDS_P1;SDS_P2;PMS_P1;PMS_P2;Temp;Humidity;BMP_temperature;BMP_pressure;BME280_temperature;BME280_humidity;BME280_pressure;Samples;Min_cycle;Max_cycle;Signal;HPM_P1;HPM_P2
2022/03/16 00:01:29;;;;;;;;;32.67;27.67;;;;;9.09;81.87;101905.53;5079458;27;45453;-70
2022/03/16 00:03:54;;;;;;;;;28.33;27.00;;;;;9.00;81.40;101896.78;5078638;27;45507;-71
2022/03/16 00:06:20;;;;;;;;;33.00;28.33;;;;;9.09;81.95;101914.31;5079161;27;45307;-71
2022/03/16 00:08:45;;;;;;;;;32.33;27.67;;;;;8.86;81.37;101878.34;5078709;27;45696;-71
2022/03/16 00:11:11;;;;;;;;;37.00;30.33;;;;;9.03;82.59;101902.03;5079086;28;45401;-71
2022/03/16 00:13:36;;;;;;;;;37.00;32.33;;;;;9.02;80.91;101902.91;5079341;28;45566;-71
2022/03/16 00:16:01;;;;;;;;;34.33;28.67;;;;;8.98;82.60;101900.25;5079041;27;45397;-73
2022/03/16 00:18:27;;;;;;;;;26.67;26.67;;;;;9.03;82.64;101909.03;5079553;27;45430;-73
2022/03/16 00:20:52;;;;;;;;;29.33;28.33;;;;;9.02;82.49;101915.16;5079556;27;45425;-73
2022/03/16 00:23:18;;;;;;;;;35.33;31.67;;;;;9.03;82.94;101920.44;5078898;27;46568;-73
2022/03/16 00:25:43;;;;;;;;;24.00;24.00;;;;;8.87;83.52;101895.88;5078098;28;45247;-73
2022/03/16 00:28:09;;;;;;;;;32.00;27.00;;;;;8.95;83.39;101911.63;5079207;27;45225;-73
2022/03/16 00:30:37;;;;;;;;;33.67;32.00;;;;;8.94;83.14;101904.63;5078950;27;45357;-73
2022/03/16 00:33:02;;;;;;;;;33.67;31.67;;;;;9.05;82.71;101923.91;5079155;27;45352;-73
2022/03/16 00:35:28;;;;;;;;;37.00;32.00;;;;;9.00;83.42;101919.53;5078788;27;45337;-73
2022/03/16 00:37:53;;;;;;;;;35.00;31.33;;;;;8.91;83.42;101902.00;5078989;27;45407;-73
2022/03/16 00:40:19;;;;;;;;;30.67;25.67;;;;;8.94;83.10;101911.63;5079133;27;45299;-73
2022/03/16 00:42:44;;;;;;;;;31.00;27.33;;;;;8.83;82.39;101895.81;5079167;27;46539;-73
2022/03/16 00:45:09;;;;;;;;;30.00;28.67;;;;;8.97;83.46;101911.63;5078977;27;45396;-72
2022/03/16 00:47:35;;;;;;;;;32.00;28.00;;;;;8.82;83.07;101891.47;5079054;27;45376;-72
2022/03/16 00:50:00;;;;;;;;;40.67;32.00;;;;;8.81;83.47;101882.69;5078033;28;45427;-72
2022/03/16 00:52:26;;;;;;;;;38.67;30.00;;;;;8.89;83.18;101894.09;5077281;28;46254;-72
2022/03/16 00:54:51;;;;;;;;;29.00;24.00;;;;;9.01;82.94;101901.13;5078718;27;45273;-73
2022/03/16 00:57:17;;;;;;;;;42.67;35.00;;;;;8.91;83.35;101883.59;5078761;27;45965;-73
2022/03/16 00:59:42;;;;;;;;;29.33;26.33;;;;;8.93;83.51;101889.75;5077969;28;45320;-74
2022/03/16 01:02:07;;;;;;;;;32.33;29.00;;;;;8.96;83.37;101894.13;5078806;28;46691;-73
2022/03/16 01:04:33;;;;;;;;;35.00;29.67;;;;;9.06;82.74;101909.91;5078562;27;45418;-73
2022/03/16 01:06:58;;;;;;;;;34.67;31.00;;;;;8.98;83.62;101890.63;5078928;28;45327;-73
2022/03/16 01:09:23;;;;;;;;;31.33;30.67;;;;;8.99;83.02;101888.88;5078787;27;45582;-73
2022/03/16 01:11:49;;;;;;;;;29.67;28.33;;;;;9.07;82.01;101903.78;5078601;27;46608;-73
2022/03/16 01:14:16;;;;;;;;;29.00;28.00;;;;;9.02;82.66;101892.38;5078247;28;45442;-73
2022/03/16 01:16:41;;;;;;;;;36.67;32.33;;;;;9.01;82.89;101885.38;5078548;27;45364;-73
2022/03/16 01:19:07;;;;;;;;;35.33;31.67;;;;;9.06;83.25;101886.28;5077805;28;45377;-73
2022/03/16 01:21:33;;;;;;;;;32.67;26.67;;;;;9.10;83.50;101894.16;5077785;27;46282;-72
2022/03/16 01:23:59;;;;;;;;;36.33;31.67;;;;;9.09;83.49;101887.13;5078540;27;45513;-73
2022/03/16 01:26:24;;;;;;;;;34.00;28.67;;;;;9.14;83.29;101894.16;5078692;27;45348;-73
2022/03/16 01:28:50;;;;;;;;;27.67;23.00;;;;;8.96;81.82;101866.13;5077955;27;45558;-73
2022/03/16 01:31:19;;;;;;;;;26.33;25.33;;;;;9.17;82.49;101893.28;5078190;27;45524;-72
2022/03/16 01:33:44;;;;;;;;;31.00;31.00;;;;;9.11;82.75;101881.03;5077925;28;45324;-73
2022/03/16 01:36:09;;;;;;;;;35.67;30.67;;;;;9.13;81.98;101883.66;5078310;27;45233;-73
2022/03/16 01:38:35;;;;;;;;;36.67;30.67;;;;;9.07;83.42;101874.00;5078236;28;45721;-73
2022/03/16 01:41:00;;;;;;;;;41.00;35.33;;;;;9.14;83.51;101888.03;5078002;28;45243;-74
2022/03/16 01:43:26;;;;;;;;;39.00;31.67;;;;;9.11;83.06;101874.91;5078315;27;45222;-73
2022/03/16 01:45:52;;;;;;;;;34.00;29.00;;;;;9.22;83.24;101879.28;5078244;28;45249;-73
2022/03/16 01:48:19;;;;;;;;;33.67;30.33;;;;;9.21;83.11;101879.28;5078012;27;45218;-73
2022/03/16 01:50:45;;;;;;;;;37.33;33.00;;;;;9.16;83.46;101857.38;5078036;27;45294;-74
2022/03/16 01:53:12;;;;;;;;;30.33;29.67;;;;;9.19;83.28;101857.38;5077871;27;45470;-74
2022/03/16 01:55:39;;;;;;;;;36.33;32.00;;;;;9.24;83.29;101867.03;5078247;27;45374;-74
2022/03/16 01:58:05;;;;;;;;;35.67;31.67;;;;;9.23;83.50;101861.75;5078048;27;45241;-73
2022/03/16 02:00:30;;;;;;;;;30.33;26.67;;;;;9.19;83.34;101850.38;5075613;28;47443;-73
2022/03/16 02:02:56;;;;;;;;;27.67;22.33;;;;;9.28;81.46;101856.50;5076919;28;45474;-74
2022/03/16 02:05:21;;;;;;;;;39.33;31.67;;;;;8.87;83.38;101793.44;5077890;27;45378;-74
2022/03/16 02:07:47;;;;;;;;;34.67;28.67;;;;;9.23;83.39;101856.50;5077598;27;45327;-74
2022/03/16 02:10:13;;;;;;;;;35.00;32.33;;;;;9.17;83.66;101851.25;5077312;27;45542;-74
2022/03/16 02:12:46;;;;;;;;;28.33;27.67;;;;;9.22;83.17;101842.50;5076943;27;45475;-73
2022/03/16 02:15:12;;;;;;;;;33.67;28.33;;;;;9.26;83.37;101851.25;5077573;27;45300;-73
2022/03/16 02:17:38;;;;;;;;;38.67;31.67;;;;;9.23;83.50;101840.75;5077722;27;45332;-74
2022/03/16 02:20:05;;;;;;;;;35.67;32.33;;;;;9.20;82.36;101824.97;5077290;28;45407;-74
2022/03/16 02:22:35;;;;;;;;;32.67;29.33;;;;;9.27;83.53;101839.00;5077184;28;45337;-73
2022/03/16 02:25:00;;;;;;;;;37.00;32.67;;;;;9.27;83.27;101842.50;5057056;28;45396;-72
2022/03/16 02:27:26;;;;;;;;;32.67;29.33;;;;;9.32;82.15;101837.25;5057599;28;45292;-73
2022/03/16 02:29:51;;;;;;;;;36.33;29.00;;;;;9.30;82.81;101831.13;5057028;28;46226;-73
2022/03/16 02:32:17;;;;;;;;;37.33;33.00;;;;;9.30;82.77;101834.59;5075784;28;45465;-73
2022/03/16 02:34:42;;;;;;;;;36.67;30.33;;;;;9.36;82.32;101836.38;5077664;27;45791;-74
2022/03/16 02:37:08;;;;;;;;;37.67;32.00;;;;;9.26;81.55;101824.97;5077359;28;45316;-73
2022/03/16 02:39:34;;;;;;;;;36.00;29.67;;;;;9.30;82.54;101826.72;5076682;28;46760;-73
2022/03/16 02:42:02;;;;;;;;;31.00;27.67;;;;;9.08;82.52;101796.94;5077266;27;45516;-74
2022/03/16 02:44:28;;;;;;;;;32.00;30.33;;;;;9.27;82.68;101837.25;5077058;27;45359;-72
2022/03/16 02:46:53;;;;;;;;;27.67;25.67;;;;;9.23;82.23;101827.59;5077415;27;45261;-72
2022/03/16 02:49:19;;;;;;;;;35.33;32.00;;;;;9.21;82.78;101830.22;5077188;27;45380;-72
2022/03/16 02:51:44;;;;;;;;;31.67;27.67;;;;;9.24;82.48;101827.59;5077062;27;45240;-71
2022/03/16 02:54:09;;;;;;;;;30.00;28.67;;;;;9.28;82.66;101824.97;5077085;28;45626;-73
2022/03/16 02:56:35;;;;;;;;;32.00;26.67;;;;;9.26;82.19;101827.59;5077464;27;45273;-73
2022/03/16 02:59:02;;;;;;;;;28.00;28.00;;;;;9.21;82.50;101827.59;5076619;28;46568;-74
2022/03/16 03:01:29;;;;;;;;;30.00;24.67;;;;;9.34;81.47;101848.66;5076322;27;45528;-74
2022/03/16 03:03:55;;;;;;;;;35.67;28.67;;;;;9.30;82.44;101833.75;5077155;27;45448;-73
2022/03/16 03:06:20;;;;;;;;;37.33;31.67;;;;;9.26;82.56;101834.63;5077162;28;45236;-73
2022/03/16 03:08:46;;;;;;;;;35.00;30.67;;;;;9.28;82.44;101836.38;5076751;27;46403;-72
2022/03/16 03:11:12;;;;;;;;;31.67;29.00;;;;;9.22;82.25;101821.47;5076753;28;45507;-72
2022/03/16 03:13:38;;;;;;;;;28.67;28.67;;;;;9.26;82.26;101834.63;5077952;27;45433;-72
2022/03/16 03:16:03;;;;;;;;;32.00;27.33;;;;;9.26;82.64;101834.63;5080658;27;45324;-72
2022/03/16 03:18:29;;;;;;;;;35.67;32.67;;;;;9.28;82.43;101832.84;5080007;27;46342;-72
2022/03/16 03:20:54;;;;;;;;;39.00;29.67;;;;;9.28;82.42;101825.88;5080023;27;45513;-72
2022/03/16 03:23:20;;;;;;;;;24.67;24.67;;;;;9.33;82.28;101839.88;5073735;28;45497;-71
2022/03/16 03:25:45;;;;;;;;;35.00;32.00;;;;;9.28;82.27;101819.72;5068655;27;45217;-71
2022/03/16 03:28:10;;;;;;;;;28.67;28.67;;;;;9.25;82.32;101820.63;5075415;28;45402;-71
2022/03/16 03:30:36;;;;;;;;;30.67;29.67;;;;;9.30;82.18;101820.59;5078989;28;45409;-72
2022/03/16 03:33:01;;;;;;;;;33.00;28.00;;;;;9.27;82.32;101817.97;5080511;27;45617;-73
2022/03/16 03:35:27;;;;;;;;;27.00;25.00;;;;;9.28;81.87;101824.97;5073923;28;45523;-74
2022/03/16 03:37:54;;;;;;;;;35.67;31.00;;;;;9.24;81.63;101813.59;5072166;28;45680;-74
2022/03/16 03:40:20;;;;;;;;;39.00;31.33;;;;;9.26;82.38;101817.09;5079682;27;45336;-73
2022/03/16 03:42:45;;;;;;;;;32.33;30.33;;;;;9.13;82.73;101800.44;5080269;27;45359;-74
2022/03/16 03:45:10;;;;;;;;;34.00;26.67;;;;;9.09;82.64;101806.59;5080276;28;45332;-74
2022/03/16 03:47:36;;;;;;;;;38.00;33.00;;;;;9.19;83.31;101820.59;5080045;28;46077;-72
2022/03/16 03:50:03;;;;;;;;;26.67;25.00;;;;;9.13;83.50;101810.94;5079395;27;45446;-72
2022/03/16 03:52:28;;;;;;;;;32.33;30.00;;;;;9.15;83.68;101817.09;5080032;27;45320;-72
2022/03/16 03:54:53;;;;;;;;;35.00;29.00;;;;;8.90;83.41;101774.16;5080129;27;45346;-73
2022/03/16 03:57:19;;;;;;;;;27.00;25.00;;;;;9.20;82.37;101822.34;5079557;27;45249;-72
2022/03/16 03:59:44;;;;;;;;;31.00;31.00;;;;;8.89;82.54;101773.28;5079488;28;45310;-73
2022/03/16 04:02:10;;;;;;;;;36.00;29.33;;;;;8.80;83.90;101754.91;5079429;27;45597;-72
2022/03/16 04:04:35;;;;;;;;;28.00;26.67;;;;;9.14;82.50;101811.84;5080164;27;45214;-71
2022/03/16 04:07:00;;;;;;;;;33.00;31.33;;;;;9.15;83.58;101819.72;5079665;28;46559;-71
2022/03/16 04:09:26;;;;;;;;;35.33;33.00;;;;;8.88;83.58;101757.53;5077988;28;45796;-72
2022/03/16 04:11:51;;;;;;;;;35.67;31.33;;;;;8.91;83.19;101754.91;5080216;28;45373;-73
2022/03/16 04:14:17;;;;;;;;;30.67;30.67;;;;;9.02;82.47;101774.19;5079760;28;45448;-71
2022/03/16 04:16:42;;;;;;;;;34.33;29.00;;;;;8.99;82.16;101765.41;5079515;28;45975;-72
2022/03/16 04:19:07;;;;;;;;;39.33;33.00;;;;;9.02;82.72;101765.44;5079474;27;45309;-72
2022/03/16 04:21:33;;;;;;;;;40.00;34.00;;;;;9.01;83.04;101767.16;5079431;27;45244;-72
2022/03/16 04:23:59;;;;;;;;;30.00;28.00;;;;;9.09;82.95;101784.69;5079700;27;45446;-72
2022/03/16 04:26:25;;;;;;;;;27.00;24.67;;;;;9.11;82.24;101794.31;5078947;27;46174;-71
2022/03/16 04:28:50;;;;;;;;;33.33;27.67;;;;;8.95;81.89;101766.31;5079536;27;45355;-72
2022/03/16 04:31:15;;;;;;;;;42.33;33.00;;;;;8.97;83.19;101769.78;5079401;28;45383;-72
2022/03/16 04:33:41;;;;;;;;;33.67;30.00;;;;;8.92;83.78;101763.66;5079618;27;45499;-73
2022/03/16 04:36:06;;;;;;;;;32.67;29.33;;;;;8.76;83.29;101758.41;5078787;27;45288;-73
2022/03/16 04:38:32;;;;;;;;;45.00;36.33;;;;;8.71;83.65;101754.88;5079050;27;45355;-72
2022/03/16 04:41:03;;;;;;;;;35.67;30.00;;;;;8.80;84.03;101780.28;5079095;27;45467;-73
2022/03/16 04:43:28;;;;;;;;;34.67;28.00;;;;;8.84;84.02;101790.81;5079499;27;45153;-72
2022/03/16 04:45:54;;;;;;;;;38.33;31.67;;;;;8.81;84.12;101788.16;5078460;28;46104;-73
2022/03/16 04:48:19;;;;;;;;;30.33;30.33;;;;;8.83;83.87;101790.78;5078949;28;45366;-71
2022/03/16 04:50:44;;;;;;;;;32.33;29.00;;;;;8.83;84.52;101788.16;5079130;28;45470;-72
2022/03/16 04:53:10;;;;;;;;;32.00;28.33;;;;;8.75;84.94;101782.91;5079223;27;45380;-74
2022/03/16 04:55:36;;;;;;;;;45.00;34.33;;;;;8.82;84.94;101789.91;5078547;27;46182;-74
2022/03/16 04:58:06;;;;;;;;;31.67;30.33;;;;;8.82;84.35;101783.78;5077522;28;45392;-72
2022/03/16 05:00:32;;;;;;;;;36.67;31.67;;;;;8.81;84.17;101788.16;5078996;27;45373;-71
2022/03/16 05:02:58;;;;;;;;;41.67;34.00;;;;;8.75;84.16;101772.41;5078012;27;45393;-71
2022/03/16 05:05:23;;;;;;;;;31.67;27.33;;;;;8.68;84.33;101758.41;5076649;28;45612;-71
2022/03/16 05:07:49;;;;;;;;;34.33;30.67;;;;;8.84;84.42;101782.03;5062888;28;45404;-71
2022/03/16 05:10:14;;;;;;;;;41.67;32.00;;;;;8.83;84.25;101783.78;5066330;28;45482;-70
2022/03/16 05:12:44;;;;;;;;;32.00;29.00;;;;;8.86;84.45;101791.66;5062267;28;45436;-73
2022/03/16 05:15:13;;;;;;;;;35.67;30.00;;;;;8.89;83.98;101780.31;5078348;27;46619;-72
2022/03/16 05:17:39;;;;;;;;;38.33;33.67;;;;;8.80;84.20;101769.78;5078577;27;45401;-72
2022/03/16 05:20:06;;;;;;;;;38.67;30.33;;;;;8.93;83.55;101786.41;5078475;27;45472;-72
2022/03/16 05:22:39;;;;;;;;;38.67;33.33;;;;;8.95;83.86;101782.06;5078742;27;45370;-72
2022/03/16 05:25:05;;;;;;;;;32.00;31.33;;;;;8.67;84.32;101735.63;5077736;27;47030;-71
2022/03/16 05:27:31;;;;;;;;;33.00;28.67;;;;;8.91;83.16;101772.41;5078273;27;45387;-71
2022/03/16 05:29:56;;;;;;;;;32.33;30.67;;;;;8.80;83.24;101751.38;5078291;28;45418;-71
2022/03/16 05:32:21;;;;;;;;;33.33;30.33;;;;;8.79;84.23;101768.91;5078409;27;45304;-72
2022/03/16 05:34:47;;;;;;;;;44.67;30.67;;;;;8.92;83.88;101777.69;5077476;27;46838;-72
2022/03/16 05:37:12;;;;;;;;;38.00;30.33;;;;;8.93;83.73;101770.66;5076918;28;45439;-72
2022/03/16 05:39:38;;;;;;;;;37.33;32.00;;;;;8.83;83.54;101751.38;5077990;27;45387;-72
2022/03/16 05:42:03;;;;;;;;;37.33;33.33;;;;;8.98;83.49;101776.81;5078435;28;45896;-72
2022/03/16 05:44:29;;;;;;;;;38.33;31.00;;;;;8.90;83.91;101763.66;5078348;27;45360;-74
2022/03/16 05:46:56;;;;;;;;;33.00;28.33;;;;;8.92;83.22;101759.28;5077676;28;45440;-74
2022/03/16 05:49:23;;;;;;;;;35.00;31.00;;;;;8.92;83.25;101753.13;5077848;27;45455;-73
2022/03/16 05:51:49;;;;;;;;;26.67;26.67;;;;;8.73;83.09;101726.00;5078459;27;45473;-74
2022/03/16 05:54:14;;;;;;;;;34.33;29.67;;;;;8.94;83.47;101756.66;5077822;27;46617;-72
2022/03/16 05:56:40;;;;;;;;;37.67;32.00;;;;;8.81;83.40;101730.38;5077125;27;45469;-73
2022/03/16 05:59:05;;;;;;;;;37.67;30.67;;;;;8.84;83.14;101735.66;5078150;27;45377;-72
2022/03/16 06:01:31;;;;;;;;;34.00;30.67;;;;;8.62;83.39;101703.25;5077417;27;45450;-72
2022/03/16 06:03:56;;;;;;;;;37.67;29.00;;;;;8.86;83.10;101746.16;5078018;27;45768;-72
2022/03/16 06:06:21;;;;;;;;;36.33;30.67;;;;;8.90;83.34;101745.25;5077544;27;45440;-73
2022/03/16 06:08:47;;;;;;;;;40.33;22.33;;;;;8.90;83.11;101740.00;5077831;27;45326;-72
2022/03/16 06:11:12;;;;;;;;;31.67;27.00;;;;;8.85;82.59;101747.88;5077349;27;45445;-73
2022/03/16 06:13:37;;;;;;;;;29.33;27.00;;;;;8.77;83.22;101746.13;5077233;27;46490;-74
2022/03/16 06:16:04;;;;;;;;;33.67;31.00;;;;;8.85;82.83;101757.53;5077595;28;45368;-72
2022/03/16 06:18:29;;;;;;;;;29.67;29.67;;;;;8.91;82.56;101761.91;5077113;27;45410;-72
2022/03/16 06:20:55;;;;;;;;;36.00;29.67;;;;;8.92;83.33;101766.28;5077852;27;45478;-72
2022/03/16 06:23:20;;;;;;;;;34.00;29.33;;;;;8.89;83.06;101754.91;5077106;28;46455;-72
2022/03/16 06:25:46;;;;;;;;;35.67;30.00;;;;;8.83;83.16;101739.16;5077379;28;45248;-71
2022/03/16 06:28:11;;;;;;;;;35.67;33.00;;;;;8.85;83.12;101742.63;5077578;28;45367;-71
2022/03/16 06:30:37;;;;;;;;;23.33;20.67;;;;;8.86;82.44;101740.91;5076746;28;45268;-72
2022/03/16 06:33:02;;;;;;;;;34.00;27.33;;;;;8.84;82.44;101734.75;5077273;27;46627;-72
2022/03/16 06:35:28;;;;;;;;;32.67;30.67;;;;;8.92;83.11;101751.41;5077455;27;45333;-72
2022/03/16 06:37:53;;;;;;;;;32.00;29.33;;;;;8.82;82.91;101723.41;5076844;27;45439;-72
2022/03/16 06:40:19;;;;;;;;;42.67;34.67;;;;;9.04;82.84;101756.66;5077161;27;45521;-72
2022/03/16 06:42:51;;;;;;;;;37.00;29.67;;;;;9.07;82.89;101764.53;5076937;27;45473;-72
2022/03/16 06:45:18;;;;;;;;;32.00;24.00;;;;;9.04;81.89;101747.91;5077298;27;45179;-72
2022/03/16 06:47:44;;;;;;;;;35.00;29.00;;;;;9.11;82.81;101762.78;5078340;27;45372;-73
2022/03/16 06:50:09;;;;;;;;;27.00;23.67;;;;;9.12;82.38;101754.03;5080604;27;45518;-71
2022/03/16 06:52:35;;;;;;;;;40.67;33.33;;;;;9.20;82.48;101765.41;5080270;27;46360;-72
2022/03/16 06:55:00;;;;;;;;;33.33;29.00;;;;;9.10;82.23;101747.88;5080734;28;45345;-72
2022/03/16 06:57:26;;;;;;;;;33.00;26.33;;;;;8.98;82.51;101722.50;5080736;27;45437;-73
2022/03/16 06:59:51;;;;;;;;;40.00;33.00;;;;;9.31;81.86;101777.66;5080787;27;45297;-74
2022/03/16 07:02:17;;;;;;;;;32.33;25.67;;;;;9.33;82.03;101771.53;5079176;28;48142;-75
2022/03/16 07:04:42;;;;;;;;;39.67;33.00;;;;;9.34;81.79;101762.78;5080846;27;45414;-74
2022/03/16 07:07:07;;;;;;;;;33.33;30.00;;;;;9.43;81.18;101772.41;5080407;27;45516;-75
2022/03/16 07:09:33;;;;;;;;;31.00;31.00;;;;;9.38;81.13;101766.25;5080569;28;45265;-75
2022/03/16 07:11:59;;;;;;;;;27.33;24.00;;;;;9.48;80.78;101781.13;5080463;28;46405;-75
2022/03/16 07:14:30;;;;;;;;;34.67;30.67;;;;;9.24;81.04;101738.25;5080542;27;45835;-74
2022/03/16 07:16:56;;;;;;;;;36.67;30.00;;;;;9.54;81.06;101785.50;5080442;27;45315;-75
2022/03/16 07:19:21;;;;;;;;;33.33;27.67;;;;;9.55;80.09;101777.63;5080529;27;45404;-75
2022/03/16 07:21:46;;;;;;;;;33.00;27.67;;;;;9.56;80.83;101782.00;5080206;28;46364;-73
2022/03/16 07:24:12;;;;;;;;;33.00;29.33;;;;;9.67;80.36;101786.38;5080561;27;45240;-76
2022/03/16 07:26:38;;;;;;;;;34.67;27.67;;;;;9.71;80.17;101785.50;5080276;28;45456;-75
2022/03/16 07:29:04;;;;;;;;;27.67;24.00;;;;;9.73;80.08;101783.72;5080319;28;45355;-74
2022/03/16 07:31:30;;;;;;;;;34.67;29.00;;;;;9.65;80.49;101780.25;5080036;28;45335;-75
2022/03/16 07:33:55;;;;;;;;;30.00;29.33;;;;;9.77;80.10;101788.09;5080215;28;45295;-75
2022/03/16 07:36:21;;;;;;;;;29.33;25.00;;;;;9.79;80.13;101780.19;5080658;27;45788;-75
2022/03/16 07:38:46;;;;;;;;;29.00;27.00;;;;;9.80;80.30;101774.06;5079925;28;45428;-75
2022/03/16 07:41:11;;;;;;;;;31.00;26.33;;;;;9.87;79.49;101784.56;5080075;28;46229;-75
2022/03/16 07:43:37;;;;;;;;;31.33;24.33;;;;;10.00;79.25;101795.06;5080125;27;45701;-75
2022/03/16 07:46:03;;;;;;;;;45.67;37.00;;;;;10.00;79.71;101795.91;5079920;28;45262;-75
2022/03/16 07:48:28;;;;;;;;;37.33;29.33;;;;;10.05;79.92;101788.00;5080180;27;45459;-75
2022/03/16 07:50:54;;;;;;;;;30.33;27.00;;;;;10.10;79.37;101795.00;5079243;27;45431;-75
2022/03/16 07:53:19;;;;;;;;;32.00;26.00;;;;;10.17;78.75;101795.88;5080041;28;45396;-76
2022/03/16 07:55:50;;;;;;;;;29.33;26.67;;;;;10.21;78.52;101809.88;5079935;27;45393;-75
2022/03/16 07:58:15;;;;;;;;;33.67;27.67;;;;;10.07;78.47;101781.00;5079629;27;45585;-75
2022/03/16 08:00:41;;;;;;;;;33.00;32.33;;;;;10.17;78.83;101787.97;5078473;27;46527;-75
2022/03/16 08:03:06;;;;;;;;;37.33;32.33;;;;;10.22;78.32;101790.56;5079244;28;45232;-75
2022/03/16 08:05:32;;;;;;;;;33.67;29.00;;;;;10.23;78.42;101787.94;5079369;27;45433;-75
2022/03/16 08:07:58;;;;;;;;;37.67;27.33;;;;;10.24;78.57;101794.97;5079922;27;45461;-75
2022/03/16 08:10:23;;;;;;;;;39.67;30.00;;;;;10.23;78.60;101779.16;5079223;28;46402;-75
2022/03/16 08:12:49;;;;;;;;;25.33;24.00;;;;;10.28;78.11;101785.28;5079700;28;45221;-75
2022/03/16 08:15:14;;;;;;;;;40.00;32.33;;;;;10.28;78.37;101782.63;5078835;27;45530;-74
2022/03/16 08:17:40;;;;;;;;;36.00;31.00;;;;;10.20;78.52;101773.94;5079925;27;45349;-74
2022/03/16 08:20:06;;;;;;;;;35.67;30.67;;;;;10.34;78.51;101798.47;5079371;27;46528;-72
2022/03/16 08:22:36;;;;;;;;;36.67;34.33;;;;;10.26;78.16;101776.53;5079431;27;45333;-73
2022/03/16 08:25:08;;;;;;;;;33.33;32.00;;;;;10.41;78.18;101797.56;5079248;27;45378;-74
2022/03/16 08:27:34;;;;;;;;;32.33;28.00;;;;;10.44;78.01;101797.53;5079033;27;45330;-74
2022/03/16 08:29:59;;;;;;;;;38.00;30.33;;;;;10.45;77.60;101793.13;5079024;27;45628;-73
2022/03/16 08:32:25;;;;;;;;;33.00;29.67;;;;;10.45;78.77;101803.66;5079164;28;45412;-74
2022/03/16 08:34:50;;;;;;;;;38.00;31.67;;;;;10.41;78.03;101786.13;5079485;27;45243;-74
2022/03/16 08:37:17;;;;;;;;;37.67;31.67;;;;;10.53;78.19;101811.50;5079280;27;45296;-75
2022/03/16 08:39:43;;;;;;;;;40.33;31.67;;;;;10.64;78.13;101812.34;5079249;28;46641;-75
2022/03/16 08:42:14;;;;;;;;;36.00;32.00;;;;;10.62;77.82;101793.91;5078077;27;45252;-75
2022/03/16 08:44:42;;;;;;;;;41.33;31.00;;;;;10.77;77.90;101810.50;5079033;28;46882;-76
2022/03/16 08:47:08;;;;;;;;;41.00;34.33;;;;;10.78;77.92;101812.25;5078733;27;45484;-76
2022/03/16 08:49:33;;;;;;;;;34.00;29.00;;;;;10.58;77.67;101773.72;5078654;27;45956;-75
2022/03/16 08:51:59;;;;;;;;;35.67;30.67;;;;;10.86;77.73;101809.56;5078223;27;45404;-76
2022/03/16 08:54:26;;;;;;;;;41.67;34.00;;;;;10.98;76.96;101813.00;5079064;27;45276;-76
2022/03/16 08:56:52;;;;;;;;;35.33;32.00;;;;;11.10;77.57;101817.28;5079061;27;46032;-76
2022/03/16 08:59:19;;;;;;;;;45.33;36.33;;;;;11.17;77.00;101797.03;5078617;28;46189;-76
2022/03/16 09:01:45;;;;;;;;;41.00;33.33;;;;;11.33;76.82;101809.19;5078232;27;45274;-76
2022/03/16 09:04:10;;;;;;;;;40.67;33.33;;;;;11.44;76.35;101805.59;5078689;27;45306;-76
2022/03/16 09:06:35;;;;;;;;;32.33;29.00;;;;;11.52;76.23;101803.75;5078907;27;45232;-76
2022/03/16 09:09:02;;;;;;;;;38.00;30.33;;;;;11.40;76.26;101765.19;5078751;28;45351;-76
2022/03/16 09:11:27;;;;;;;;;32.33;28.67;;;;;11.68;75.42;101786.00;5077547;27;45236;-76
2022/03/16 09:13:52;;;;;;;;;35.00;29.33;;;;;11.89;75.02;101784.88;5078110;27;45405;-76
2022/03/16 09:16:18;;;;;;;;;37.33;30.00;;;;;11.96;74.37;101773.41;5078397;27;45482;-76
2022/03/16 09:18:44;;;;;;;;;34.67;31.00;;;;;12.00;74.29;101771.63;5078245;28;45477;-76
2022/03/16 09:21:11;;;;;;;;;46.33;33.33;;;;;12.02;73.94;101777.72;5077362;28;45272;-75
2022/03/16 09:23:36;;;;;;;;;36.00;28.67;;;;;12.11;73.56;101789.94;5078530;27;45450;-75
2022/03/16 09:26:02;;;;;;;;;39.67;33.00;;;;;12.25;72.92;101795.06;5078423;27;45257;-76
2022/03/16 09:28:28;;;;;;;;;37.67;30.00;;;;;12.33;72.87;101790.56;5078240;27;46780;-76
2022/03/16 09:30:53;;;;;;;;;41.67;33.33;;;;;12.35;72.30;101797.56;5077893;27;45409;-75
2022/03/16 09:33:21;;;;;;;;;31.67;29.67;;;;;12.30;72.59;101785.31;5078305;27;45306;-75
2022/03/16 09:35:48;;;;;;;;;38.33;32.67;;;;;12.41;72.17;101801.88;5078477;27;45255;-76
2022/03/16 09:38:17;;;;;;;;;45.00;34.33;;;;;12.41;72.34;101788.69;5077832;27;45259;-76
2022/03/16 09:40:43;;;;;;;;;37.33;32.33;;;;;12.46;71.82;101792.16;5078040;27;45380;-76
2022/03/16 09:43:10;;;;;;;;;35.67;31.33;;;;;12.51;72.07;101787.66;5076872;28;45695;-76
2022/03/16 09:46:03;;;;;;;;;40.33;31.67;;;;;12.51;72.64;101790.28;5078159;27;45532;-76
2022/03/16 09:48:30;;;;;;;;;43.33;33.33;;;;;12.48;71.93;101779.78;4995288;28;46550;-76
2022/03/16 09:50:56;;;;;;;;;38.00;33.00;;;;;12.44;71.79;101782.47;4995099;28;45430;-76
2022/03/16 09:53:26;;;;;;;;;33.67;31.33;;;;;12.41;71.92;101780.75;4995751;28;45291;-75
2022/03/16 09:55:52;;;;;;;;;41.00;34.67;;;;;12.46;72.33;101797.44;4995200;28;45555;-75
2022/03/16 09:58:20;;;;;;;;;28.33;25.33;;;;;12.38;72.43;101779.94;4995294;28;45464;-76
2022/03/16 10:00:46;;;;;;;;;44.67;32.67;;;;;12.42;72.80;101789.56;4995420;28;45492;-76
2022/03/16 10:03:12;;;;;;;;;40.33;33.67;;;;;12.45;72.79;101789.53;4995632;28;45369;-75
2022/03/16 10:05:38;;;;;;;;;33.67;30.67;;;;;12.52;72.74;101796.47;4995733;28;45247;-76
2022/03/16 10:08:08;;;;;;;;;43.33;34.33;;;;;12.54;72.81;101786.75;4994763;28;46395;-76
2022/03/16 10:13:23;;;;;;;;;38.67;33.00;;;;;12.71;72.56;101786.50;4993760;28;45474;-75
2022/03/16 10:15:49;;;;;;;;;38.00;31.33;;;;;12.74;72.59;101778.53;4994096;28;45706;-75
2022/03/16 10:18:17;;;;;;;;;41.33;34.33;;;;;12.68;72.69;101768.91;4994196;28;47535;-75
2022/03/16 10:20:43;;;;;;;;;38.33;32.67;;;;;12.85;72.35;101789.81;4993298;28;45529;-75
2022/03/16 10:23:20;;;;;;;;;44.67;34.00;;;;;12.85;72.36;101786.28;4994408;28;45470;-75
2022/03/16 10:25:54;;;;;;;;;30.67;26.33;;;;;12.93;72.53;101781.75;5041594;28;45419;-75
2022/03/16 10:28:30;;;;;;;;;39.67;34.00;;;;;12.91;72.21;101782.66;5075691;27;45854;-75
2022/03/16 10:31:07;;;;;;;;;32.00;30.00;;;;;12.86;72.44;101775.69;5063991;28;45411;-75
2022/03/16 10:33:56;;;;;;;;;38.67;33.67;;;;;12.82;72.61;101776.66;5075583;28;45381;-74
2022/03/16 10:36:23;;;;;;;;;40.00;33.67;;;;;12.84;72.29;101777.50;5077075;27;45468;-75
2022/03/16 10:39:02;;;;;;;;;40.00;34.00;;;;;12.68;72.34;101754.84;5076290;28;45544;-75
2022/03/16 10:47:00;;;;;;;;;45.33;34.00;;;;;12.82;72.92;101773.13;5076100;28;45376;-75
2022/03/16 10:49:30;;;;;;;;;36.67;32.67;;;;;12.90;72.42;101776.53;5076081;28;45980;-74
2022/03/16 10:52:17;;;;;;;;;35.33;31.00;;;;;12.92;72.66;101782.66;5076604;27;45525;-74
2022/03/16 10:54:48;;;;;;;;;37.67;32.67;;;;;12.87;72.22;101782.72;5076360;27;45395;-75
2022/03/16 10:57:13;;;;;;;;;39.00;32.00;;;;;12.86;72.57;101777.47;5076531;28;45429;-75
2022/03/16 10:59:42;;;;;;;;;44.33;34.00;;;;;12.88;72.74;101762.44;5074191;28;46350;-73
2022/03/16 11:02:13;;;;;;;;;37.67;30.67;;;;;12.95;72.82;101776.44;5075880;27;45439;-74
2022/03/16 11:04:44;;;;;;;;;43.67;33.67;;;;;12.92;72.17;101774.72;5076723;27;45384;-75
2022/03/16 11:07:10;;;;;;;;;47.67;36.00;;;;;12.92;72.76;101785.28;5076673;27;45395;-75
2022/03/16 11:09:37;;;;;;;;;46.33;36.00;;;;;12.87;72.89;101766.00;5075436;27;45570;-75
2022/03/16 11:14:49;;;;;;;;;44.33;34.00;;;;;12.87;72.48;101758.06;5076195;28;45500;-74
2022/03/16 11:17:15;;;;;;;;;39.33;33.00;;;;;12.99;72.48;101775.50;5076503;27;45421;-74
2022/03/16 11:19:46;;;;;;;;;39.33;32.67;;;;;12.93;72.39;101752.69;5076154;27;46604;-74
2022/03/16 11:22:19;;;;;;;;;35.67;31.00;;;;;13.04;72.02;101774.53;5076256;28;45821;-74